createdAt,value
2019-03-27T00:01:19.178Z,23.50
2019-03-27T00:03:47.705Z,23.13
2019-03-27T00:06:16.265Z,21.00
2019-03-27T00:08:44.797Z,26.00
2019-03-27T00:11:16.049Z,23.07
2019-03-27T00:13:43.572Z,30.87
2019-03-27T00:16:12.229Z,29.07
2019-03-27T00:18:40.764Z,28.23
2019-03-27T00:21:09.322Z,28.47
2019-03-27T00:23:37.859Z,22.53
2019-03-27T00:26:06.518Z,23.67
2019-03-27T00:28:35.045Z,18.23
2019-03-27T00:31:03.515Z,26.23
2019-03-27T00:33:32.074Z,24.50
2019-03-27T00:36:00.549Z,20.20
2019-03-27T00:38:29.116Z,24.83
2019-03-27T00:40:57.655Z,25.30
2019-03-27T00:43:26.217Z,25.33
2019-03-27T00:45:54.751Z,21.90
2019-03-27T00:48:23.238Z,20.57
2019-03-27T00:50:51.701Z,21.70
2019-03-27T00:53:20.189Z,23.83
2019-03-27T00:55:48.723Z,20.63
2019-03-27T00:58:17.291Z,21.67
2019-03-27T01:00:49.517Z,25.80
2019-03-27T01:03:18.113Z,24.13
2019-03-27T01:05:46.578Z,23.60
2019-03-27T01:08:15.069Z,23.17
2019-03-27T01:10:43.601Z,24.07
2019-03-27T01:13:12.090Z,29.30
2019-03-27T01:15:40.626Z,22.00
2019-03-27T01:18:09.192Z,29.47
2019-03-27T01:20:37.725Z,21.93
2019-03-27T01:23:06.223Z,25.53
2019-03-27T01:25:34.765Z,21.10
2019-03-27T01:28:03.329Z,22.73
2019-03-27T01:30:31.857Z,21.83
2019-03-27T01:33:00.422Z,17.87
2019-03-27T01:35:28.954Z,21.80
2019-03-27T01:37:57.414Z,18.37
2019-03-27T01:40:25.901Z,24.93
2019-03-27T01:42:54.506Z,21.70
2019-03-27T01:45:23.133Z,21.07
2019-03-27T01:47:51.594Z,21.30
2019-03-27T01:50:20.086Z,19.53
2019-03-27T01:52:48.614Z,22.57
2019-03-27T01:55:17.106Z,20.90
2019-03-27T01:57:45.637Z,29.13
2019-03-27T02:00:14.669Z,26.57
2019-03-27T02:02:43.201Z,21.73
2019-03-27T02:05:11.694Z,23.53
2019-03-27T02:07:40.229Z,24.80
2019-03-27T02:10:09.252Z,21.53
2019-03-27T02:12:37.786Z,24.27
2019-03-27T02:15:09.283Z,20.73
2019-03-27T02:17:37.890Z,21.30
2019-03-27T02:20:07.594Z,21.63
2019-03-27T02:22:36.133Z,29.23
2019-03-27T02:25:11.310Z,24.57
2019-03-27T02:27:39.846Z,21.80
2019-03-27T02:30:08.577Z,24.27
2019-03-27T02:32:37.190Z,24.70
2019-03-27T02:35:06.291Z,20.80
2019-03-27T02:37:34.824Z,20.40
2019-03-27T02:40:04.129Z,17.80
2019-03-27T02:42:32.666Z,21.63
2019-03-27T02:45:01.245Z,27.20
2019-03-27T02:47:29.777Z,22.43
2019-03-27T02:49:58.323Z,23.60
2019-03-27T02:52:26.883Z,26.53
2019-03-27T02:54:55.423Z,28.13
2019-03-27T02:57:23.995Z,24.97
2019-03-27T02:59:52.535Z,24.47
2019-03-27T03:02:21.122Z,28.20
2019-03-27T03:04:49.658Z,28.10
2019-03-27T03:07:18.216Z,20.80
2019-03-27T03:09:46.819Z,18.70
2019-03-27T03:12:15.321Z,24.63
2019-03-27T03:14:43.872Z,25.50
2019-03-27T03:17:12.430Z,25.50
2019-03-27T03:19:40.957Z,24.60
2019-03-27T03:22:09.451Z,24.47
2019-03-27T03:24:37.987Z,21.60
2019-03-27T03:27:06.556Z,22.10
2019-03-27T03:29:35.095Z,21.93
2019-03-27T03:32:03.739Z,23.60
2019-03-27T03:34:32.263Z,25.70
2019-03-27T03:37:00.899Z,24.27
2019-03-27T03:39:29.431Z,17.67
2019-03-27T03:41:58.004Z,19.23
2019-03-27T03:44:26.814Z,22.57
2019-03-27T03:47:00.053Z,21.80
2019-03-27T03:49:25.575Z,26.57
2019-03-27T03:51:54.262Z,25.93
2019-03-27T03:54:23.439Z,28.33
2019-03-27T03:56:54.940Z,26.57
2019-03-27T03:59:24.821Z,21.67
2019-03-27T04:01:55.083Z,22.30
2019-03-27T04:04:23.879Z,23.33
2019-03-27T04:06:52.523Z,21.20
2019-03-27T04:09:21.917Z,19.47
2019-03-27T04:11:50.427Z,25.20
2019-03-27T04:14:18.962Z,26.40
2019-03-27T04:16:47.508Z,24.53
2019-03-27T04:19:16.066Z,25.20
2019-03-27T04:21:44.613Z,26.60
2019-03-27T04:24:13.182Z,23.70
2019-03-27T04:26:41.727Z,26.27
2019-03-27T04:29:10.286Z,25.83
2019-03-27T04:31:38.815Z,24.73
2019-03-27T04:34:07.397Z,23.83
2019-03-27T04:36:35.943Z,23.20
2019-03-27T04:39:05.347Z,25.30
2019-03-27T04:41:33.894Z,25.70
2019-03-27T04:44:02.727Z,22.50
2019-03-27T04:46:31.269Z,29.07
2019-03-27T04:48:59.830Z,26.30
2019-03-27T04:51:28.374Z,23.70
2019-03-27T04:53:56.937Z,25.10
2019-03-27T04:56:25.478Z,23.33
2019-03-27T04:58:54.043Z,25.53
2019-03-27T05:01:22.582Z,22.07
2019-03-27T05:03:51.219Z,19.93
2019-03-27T05:06:19.761Z,26.23
2019-03-27T05:08:48.322Z,23.27
2019-03-27T05:11:16.931Z,26.10
2019-03-27T05:13:45.499Z,28.50
2019-03-27T05:16:14.050Z,20.73
2019-03-27T05:18:42.612Z,31.73
2019-03-27T05:21:11.155Z,25.70
2019-03-27T05:23:39.716Z,23.90
2019-03-27T05:26:08.258Z,27.30
2019-03-27T05:28:36.817Z,25.13
2019-03-27T05:31:05.281Z,23.33
2019-03-27T05:33:33.841Z,21.93
2019-03-27T05:36:02.321Z,25.43
2019-03-27T05:38:30.885Z,24.50
2019-03-27T05:40:59.481Z,22.57
2019-03-27T05:43:28.044Z,27.90
2019-03-27T05:45:56.582Z,29.70
2019-03-27T05:48:25.138Z,28.70
2019-03-27T05:50:53.606Z,24.77
2019-03-27T05:53:22.156Z,24.00
2019-03-27T05:55:50.713Z,25.03
2019-03-27T05:58:19.188Z,22.90
2019-03-27T06:00:47.749Z,23.33
2019-03-27T06:03:16.276Z,23.63
2019-03-27T06:05:44.840Z,29.33
2019-03-27T06:08:13.451Z,30.63
2019-03-27T06:10:42.041Z,26.13
2019-03-27T06:13:10.629Z,29.83
2019-03-27T06:15:39.198Z,24.33
2019-03-27T06:18:13.442Z,25.67
2019-03-27T06:20:37.951Z,30.30
2019-03-27T06:23:06.558Z,27.77
2019-03-27T06:25:35.154Z,33.17
2019-03-27T06:28:03.682Z,28.07
2019-03-27T06:30:32.251Z,28.20
2019-03-27T06:33:00.793Z,33.33
2019-03-27T06:35:29.366Z,28.47
2019-03-27T06:37:57.909Z,29.57
2019-03-27T06:40:26.472Z,32.50
2019-03-27T06:42:55.004Z,31.47
2019-03-27T06:45:23.493Z,26.03
2019-03-27T06:47:51.958Z,31.03
2019-03-27T06:50:20.534Z,34.47
2019-03-27T06:52:49.075Z,30.00
2019-03-27T06:55:17.633Z,26.87
2019-03-27T06:57:46.186Z,32.40
2019-03-27T07:00:15.307Z,35.23
2019-03-27T07:02:43.769Z,26.33
2019-03-27T07:05:12.259Z,37.20
2019-03-27T07:07:40.804Z,36.40
2019-03-27T07:10:09.906Z,32.53
2019-03-27T07:12:38.438Z,37.13
2019-03-27T07:15:07.370Z,30.30
2019-03-27T07:17:35.912Z,29.53
2019-03-27T07:20:07.174Z,31.60
2019-03-27T07:22:35.637Z,30.07
2019-03-27T07:25:07.145Z,32.73
2019-03-27T07:27:35.681Z,35.13
2019-03-27T07:30:05.715Z,33.00
2019-03-27T07:32:34.255Z,33.17
2019-03-27T07:35:02.862Z,29.07
2019-03-27T07:37:31.426Z,30.13
2019-03-27T07:39:59.988Z,30.40
2019-03-27T07:42:28.988Z,27.70
2019-03-27T07:44:57.758Z,28.83
2019-03-27T07:47:26.321Z,33.50
2019-03-27T07:49:54.785Z,32.07
2019-03-27T07:52:23.347Z,33.03
2019-03-27T07:54:51.890Z,29.50
2019-03-27T07:57:20.454Z,30.60
2019-03-27T07:59:48.994Z,38.70
2019-03-27T08:02:17.558Z,32.47
2019-03-27T08:04:46.178Z,36.50
2019-03-27T08:07:26.189Z,28.37
2019-03-27T08:09:44.921Z,31.33
2019-03-27T08:12:13.497Z,31.73
2019-03-27T08:14:42.041Z,36.20
2019-03-27T08:17:10.611Z,30.20
2019-03-27T08:19:39.154Z,31.77
2019-03-27T08:22:07.715Z,30.80
2019-03-27T08:24:36.260Z,25.90
2019-03-27T08:27:04.902Z,36.90
2019-03-27T08:29:33.446Z,34.33
2019-03-27T08:32:02.013Z,30.00
2019-03-27T08:34:30.549Z,33.30
2019-03-27T08:36:59.114Z,27.23
2019-03-27T08:39:27.664Z,36.37
2019-03-27T08:41:56.236Z,33.33
2019-03-27T08:44:24.770Z,32.53
2019-03-27T08:46:53.238Z,26.73
2019-03-27T08:49:22.633Z,26.23
2019-03-27T08:51:51.347Z,32.50
2019-03-27T08:54:19.910Z,27.07
2019-03-27T08:56:48.450Z,25.30
2019-03-27T08:59:16.947Z,28.70
2019-03-27T09:01:45.492Z,26.00
2019-03-27T09:04:14.057Z,24.80
2019-03-27T09:06:42.606Z,26.03
2019-03-27T09:09:11.233Z,26.33
2019-03-27T09:11:39.701Z,29.47
2019-03-27T09:14:08.328Z,23.60
2019-03-27T09:16:36.811Z,24.73
2019-03-27T09:19:05.534Z,21.43
2019-03-27T09:21:34.070Z,20.07
2019-03-27T09:24:02.635Z,24.80
2019-03-27T09:26:31.191Z,22.67
2019-03-27T09:28:59.760Z,13.90
2019-03-27T09:31:28.291Z,17.00
2019-03-27T09:33:57.099Z,21.00
2019-03-27T09:36:25.639Z,19.33
2019-03-27T09:38:54.286Z,20.80
2019-03-27T09:41:22.817Z,23.13
2019-03-27T09:43:51.315Z,20.53
2019-03-27T09:46:19.869Z,22.07
2019-03-27T09:48:48.420Z,17.73
2019-03-27T09:51:17.025Z,14.70
2019-03-27T09:53:45.523Z,15.20
2019-03-27T09:56:19.271Z,11.00
2019-03-27T09:58:44.278Z,12.30
2019-03-27T10:01:12.818Z,7.77
2019-03-27T10:03:41.406Z,11.37
2019-03-27T10:06:09.950Z,18.20
2019-03-27T10:08:38.516Z,13.37
2019-03-27T10:11:07.058Z,11.63
2019-03-27T10:13:35.599Z,12.50
2019-03-27T10:16:04.631Z,11.93
2019-03-27T10:18:33.174Z,10.20
2019-03-27T10:21:01.815Z,12.10
2019-03-27T10:23:30.341Z,8.10
2019-03-27T10:25:58.897Z,7.57
2019-03-27T10:28:27.365Z,10.43
2019-03-27T10:30:55.929Z,10.13
2019-03-27T10:33:24.530Z,13.13
2019-03-27T10:35:53.025Z,9.23
2019-03-27T10:38:21.553Z,9.07
2019-03-27T10:40:50.147Z,9.73
2019-03-27T10:43:18.655Z,10.43
2019-03-27T10:45:47.232Z,11.23
2019-03-27T10:48:15.770Z,8.93
2019-03-27T10:50:44.335Z,7.10
2019-03-27T10:53:12.873Z,13.70
2019-03-27T10:55:41.366Z,8.10
2019-03-27T10:58:09.838Z,10.40
2019-03-27T11:00:38.479Z,9.43
2019-03-27T11:03:07.001Z,10.33
2019-03-27T11:05:35.497Z,10.80
2019-03-27T11:08:04.186Z,11.30
2019-03-27T11:10:32.734Z,12.33
2019-03-27T11:13:01.278Z,11.77
2019-03-27T11:15:29.833Z,12.67
2019-03-27T11:17:58.385Z,8.43
2019-03-27T11:20:31.261Z,7.43
2019-03-27T11:22:57.200Z,9.00
2019-03-27T11:25:25.775Z,9.73
2019-03-27T11:27:54.313Z,6.50
2019-03-27T11:30:25.950Z,9.17
2019-03-27T11:32:54.488Z,6.73
2019-03-27T11:35:22.981Z,7.80
2019-03-27T11:37:51.437Z,4.63
2019-03-27T11:40:20.008Z,7.30
2019-03-27T11:42:48.619Z,6.87
2019-03-27T11:45:17.289Z,9.93
2019-03-27T11:47:45.774Z,12.20
2019-03-27T11:50:14.681Z,7.07
2019-03-27T11:52:43.318Z,10.73
2019-03-27T11:55:12.093Z,7.20
2019-03-27T11:57:40.669Z,7.60
2019-03-27T12:00:10.911Z,10.37
2019-03-27T12:02:39.481Z,11.47
2019-03-27T12:05:08.646Z,9.20
2019-03-27T12:07:37.207Z,9.93
2019-03-27T12:10:06.986Z,9.63
2019-03-27T12:12:35.623Z,7.60
2019-03-27T12:15:07.197Z,11.00
2019-03-27T12:17:35.681Z,8.03
2019-03-27T12:20:05.691Z,9.07
2019-03-27T12:22:34.255Z,6.53
2019-03-27T12:25:02.791Z,9.00
2019-03-27T12:27:31.353Z,11.30
2019-03-27T12:29:59.882Z,7.03
2019-03-27T12:32:28.465Z,7.23
2019-03-27T12:34:56.994Z,7.23
2019-03-27T12:37:25.481Z,7.03
2019-03-27T12:39:54.010Z,9.33
2019-03-27T12:42:22.574Z,8.00
2019-03-27T12:44:51.043Z,5.70
2019-03-27T12:47:19.607Z,8.13
2019-03-27T12:49:48.147Z,8.03
2019-03-27T12:52:16.754Z,9.10
2019-03-27T12:54:45.326Z,9.47
2019-03-27T12:57:13.875Z,4.63
2019-03-27T12:59:42.415Z,7.67
2019-03-27T13:02:10.947Z,9.00
2019-03-27T13:04:39.509Z,8.40
2019-03-27T13:07:07.976Z,8.10
2019-03-27T13:09:36.555Z,8.00
2019-03-27T13:12:05.082Z,10.07
2019-03-27T13:14:33.642Z,10.47
2019-03-27T13:17:02.111Z,12.63
2019-03-27T13:19:30.685Z,7.77
2019-03-27T13:21:59.205Z,7.63
2019-03-27T13:24:27.695Z,5.50
2019-03-27T13:26:56.234Z,11.00
2019-03-27T13:29:24.797Z,10.83
2019-03-27T13:31:53.329Z,7.03
2019-03-27T13:34:21.896Z,5.93
2019-03-27T13:36:51.907Z,10.60
2019-03-27T13:39:20.482Z,9.97
2019-03-27T13:41:49.022Z,17.63
2019-03-27T13:44:17.519Z,11.47
2019-03-27T13:46:46.151Z,11.60
2019-03-27T13:49:14.689Z,11.10
2019-03-27T13:51:43.230Z,12.10
2019-03-27T13:54:11.798Z,14.27
2019-03-27T13:56:40.402Z,9.93
2019-03-27T13:59:08.893Z,19.33
2019-03-27T14:01:37.511Z,13.10
2019-03-27T14:04:06.606Z,11.20
2019-03-27T14:06:35.146Z,10.27
2019-03-27T14:09:05.264Z,11.47
2019-03-27T14:11:33.918Z,13.33
2019-03-27T14:14:11.067Z,13.60
2019-03-27T14:16:32.676Z,15.77
2019-03-27T14:19:01.261Z,12.10
2019-03-27T14:21:29.847Z,21.30
2019-03-27T14:23:58.391Z,13.13
2019-03-27T14:26:27.034Z,10.83
2019-03-27T14:28:55.502Z,15.50
2019-03-27T14:31:24.079Z,9.13
2019-03-27T14:33:52.613Z,10.90
2019-03-27T14:36:21.122Z,11.97
2019-03-27T14:38:49.654Z,8.43
2019-03-27T14:41:18.239Z,9.70
2019-03-27T14:43:46.782Z,11.90
2019-03-27T14:46:15.323Z,10.10
2019-03-27T14:48:43.899Z,8.80
2019-03-27T14:51:12.357Z,11.03
2019-03-27T14:53:40.933Z,11.13
2019-03-27T14:56:09.477Z,14.90
2019-03-27T14:58:38.979Z,10.30
2019-03-27T15:01:07.697Z,12.10
2019-03-27T15:03:36.302Z,11.10
2019-03-27T15:06:04.959Z,13.53
2019-03-27T15:08:33.565Z,12.33
2019-03-27T15:11:02.147Z,14.40
2019-03-27T15:13:30.685Z,30.77
2019-03-27T15:15:59.186Z,12.63
2019-03-27T15:18:27.800Z,11.73
2019-03-27T15:20:56.382Z,15.90
2019-03-27T15:23:24.980Z,12.30
2019-03-27T15:25:53.444Z,9.40
2019-03-27T15:28:22.027Z,14.77
2019-03-27T15:30:50.575Z,10.90
2019-03-27T15:33:19.147Z,18.47
2019-03-27T15:35:47.688Z,14.60
2019-03-27T15:38:16.323Z,10.03
2019-03-27T15:40:46.122Z,13.30
2019-03-27T15:43:14.730Z,16.77
2019-03-27T15:45:43.371Z,10.80
2019-03-27T15:48:11.916Z,15.10
2019-03-27T15:50:53.800Z,8.00
2019-03-27T15:53:10.738Z,14.93
2019-03-27T15:55:39.309Z,12.93
2019-03-27T15:58:07.850Z,10.53
2019-03-27T16:00:36.482Z,13.17
2019-03-27T16:03:05.087Z,16.43
2019-03-27T16:05:33.651Z,15.33
2019-03-27T16:08:02.263Z,10.00
2019-03-27T16:10:30.893Z,8.87
2019-03-27T16:12:59.430Z,12.07
2019-03-27T16:15:27.999Z,10.70
2019-03-27T16:17:56.534Z,8.43
2019-03-27T16:20:25.243Z,10.87
2019-03-27T16:22:53.823Z,10.43
2019-03-27T16:25:22.413Z,13.57
2019-03-27T16:27:50.906Z,12.30
2019-03-27T16:30:19.688Z,10.60
2019-03-27T16:32:48.330Z,13.13
2019-03-27T16:35:16.869Z,12.50
2019-03-27T16:37:45.438Z,11.90
2019-03-27T16:40:14.217Z,21.63
2019-03-27T16:42:42.782Z,13.90
2019-03-27T16:45:11.445Z,10.50
2019-03-27T16:47:40.169Z,17.83
2019-03-27T16:50:09.430Z,12.13
2019-03-27T16:52:38.072Z,13.70
2019-03-27T16:55:07.837Z,12.03
2019-03-27T16:57:36.329Z,10.63
2019-03-27T17:00:06.989Z,13.17
2019-03-27T17:02:35.622Z,13.53
2019-03-27T17:05:08.502Z,11.33
2019-03-27T17:07:37.068Z,15.07
2019-03-27T17:10:06.946Z,15.93
2019-03-27T17:12:35.521Z,15.60
2019-03-27T17:15:06.098Z,14.70
2019-03-27T17:17:34.811Z,15.80
2019-03-27T17:20:05.227Z,16.40
2019-03-27T17:22:33.966Z,17.93
2019-03-27T17:25:02.440Z,13.93
2019-03-27T17:27:31.005Z,12.23
2019-03-27T17:29:59.738Z,20.30
2019-03-27T17:32:28.221Z,13.03
2019-03-27T17:34:56.682Z,16.53
2019-03-27T17:37:25.174Z,14.80
2019-03-27T17:39:53.707Z,14.50
2019-03-27T17:42:22.333Z,12.80
2019-03-27T17:44:52.256Z,10.37
2019-03-27T17:47:20.941Z,12.50
2019-03-27T17:49:49.485Z,16.70
2019-03-27T17:52:18.051Z,20.90
2019-03-27T17:54:46.589Z,16.40
2019-03-27T17:57:15.221Z,17.23
2019-03-27T17:59:43.757Z,13.43
2019-03-27T18:02:12.295Z,17.23
2019-03-27T18:04:40.855Z,16.40
2019-03-27T18:07:09.330Z,14.83
2019-03-27T18:09:37.878Z,12.63
2019-03-27T18:12:06.332Z,11.40
2019-03-27T18:14:34.819Z,14.17
2019-03-27T18:17:03.362Z,14.20
2019-03-27T18:19:31.987Z,13.90
2019-03-27T18:22:07.619Z,13.03
2019-03-27T18:24:30.663Z,18.73
2019-03-27T18:26:59.197Z,14.73
2019-03-27T18:29:27.690Z,13.40
2019-03-27T18:31:56.154Z,14.53
2019-03-27T18:34:24.650Z,17.40
2019-03-27T18:36:53.185Z,11.57
2019-03-27T18:39:21.751Z,14.50
2019-03-27T18:41:50.290Z,15.70
2019-03-27T18:44:18.861Z,12.73
2019-03-27T18:46:47.391Z,18.03
2019-03-27T18:49:15.947Z,19.30
2019-03-27T18:51:44.482Z,12.83
2019-03-27T18:54:12.968Z,17.23
2019-03-27T18:56:41.508Z,17.50
2019-03-27T18:59:10.065Z,17.50
2019-03-27T19:01:38.601Z,31.97
2019-03-27T19:04:08.367Z,12.70
2019-03-27T19:06:36.957Z,24.53
2019-03-27T19:09:08.004Z,19.53
2019-03-27T19:11:36.605Z,12.63
2019-03-27T19:14:05.182Z,12.60
2019-03-27T19:16:33.723Z,13.70
2019-03-27T19:19:02.323Z,12.83
2019-03-27T19:21:30.928Z,14.03
2019-03-27T19:24:12.447Z,16.40
2019-03-27T19:26:29.729Z,10.00
2019-03-27T19:28:58.262Z,13.80
2019-03-27T19:31:26.843Z,18.40
2019-03-27T19:33:55.374Z,12.33
2019-03-27T19:36:23.874Z,14.90
2019-03-27T19:38:52.425Z,14.10
2019-03-27T19:41:20.993Z,14.80
2019-03-27T19:43:49.526Z,14.23
2019-03-27T19:46:18.086Z,13.87
2019-03-27T19:48:46.617Z,13.70
2019-03-27T19:51:15.102Z,14.23
2019-03-27T19:53:43.711Z,13.77
2019-03-27T19:56:12.282Z,18.97
2019-03-27T19:58:40.816Z,26.40
2019-03-27T20:01:09.379Z,14.73
2019-03-27T20:03:38.047Z,14.63
2019-03-27T20:06:06.617Z,17.70
2019-03-27T20:08:35.155Z,16.33
2019-03-27T20:11:03.776Z,15.70
2019-03-27T20:13:32.234Z,17.80
2019-03-27T20:16:00.725Z,17.00
2019-03-27T20:18:29.269Z,10.50
2019-03-27T20:20:57.827Z,20.77
2019-03-27T20:23:26.362Z,17.63
2019-03-27T20:25:54.996Z,19.43
2019-03-27T20:28:23.528Z,17.60
2019-03-27T20:30:52.159Z,16.70
2019-03-27T20:33:20.698Z,15.50
2019-03-27T20:35:49.238Z,25.00
2019-03-27T20:38:17.734Z,19.23
2019-03-27T20:40:46.345Z,22.10
2019-03-27T20:43:14.946Z,23.90
2019-03-27T20:45:43.484Z,21.57
2019-03-27T20:48:12.045Z,82.20
2019-03-27T20:50:40.507Z,43.90
2019-03-27T20:53:09.135Z,16.30
2019-03-27T20:55:37.676Z,21.10
2019-03-27T20:58:06.171Z,14.97
2019-03-27T21:00:34.731Z,17.80
2019-03-27T21:03:03.294Z,17.17
2019-03-27T21:05:34.950Z,17.50
2019-03-27T21:08:02.143Z,16.20
2019-03-27T21:10:30.753Z,19.63
2019-03-27T21:12:59.398Z,21.00
2019-03-27T21:15:27.869Z,20.97
2019-03-27T21:17:56.506Z,25.23
2019-03-27T21:20:25.043Z,22.30
2019-03-27T21:22:53.665Z,20.60
2019-03-27T21:25:22.219Z,17.47
2019-03-27T21:27:50.781Z,23.57
2019-03-27T21:30:19.459Z,23.80
2019-03-27T21:32:48.020Z,22.20
2019-03-27T21:35:16.494Z,25.53
2019-03-27T21:37:45.054Z,16.97
2019-03-27T21:40:13.934Z,17.20
2019-03-27T21:42:42.571Z,18.23
2019-03-27T21:45:11.448Z,16.40
2019-03-27T21:47:40.029Z,17.73
2019-03-27T21:50:08.997Z,18.40
2019-03-27T21:52:37.678Z,19.97
2019-03-27T21:55:06.888Z,17.10
2019-03-27T21:57:35.413Z,17.67
2019-03-27T22:00:05.914Z,20.83
2019-03-27T22:02:34.378Z,18.03
2019-03-27T22:05:02.949Z,24.20
2019-03-27T22:07:31.495Z,16.67
2019-03-27T22:10:00.050Z,21.23
2019-03-27T22:12:28.524Z,15.00
2019-03-27T22:14:57.090Z,19.50
2019-03-27T22:17:25.630Z,17.90
2019-03-27T22:19:54.199Z,17.00
2019-03-27T22:22:22.729Z,16.37
2019-03-27T22:24:51.231Z,16.17
2019-03-27T22:27:19.754Z,20.17
2019-03-27T22:29:48.242Z,14.20
2019-03-27T22:32:16.773Z,20.23
2019-03-27T22:34:45.268Z,16.90
2019-03-27T22:37:13.813Z,15.20
2019-03-27T22:39:42.378Z,13.57
2019-03-27T22:42:11.176Z,14.90
2019-03-27T22:44:39.662Z,18.63
2019-03-27T22:47:08.125Z,16.60
2019-03-27T22:49:36.698Z,13.20
2019-03-27T22:52:05.230Z,19.90
2019-03-27T22:54:33.763Z,16.03
2019-03-27T22:57:02.334Z,16.23
2019-03-27T22:59:30.870Z,27.37
2019-03-27T23:01:59.506Z,20.00
2019-03-27T23:04:28.042Z,18.83
2019-03-27T23:06:56.521Z,13.63
2019-03-27T23:09:25.060Z,17.07
2019-03-27T23:11:53.616Z,16.90
2019-03-27T23:14:22.077Z,16.30
2019-03-27T23:16:50.634Z,12.60
2019-03-27T23:19:19.093Z,15.90
2019-03-27T23:21:47.586Z,15.00
2019-03-27T23:24:16.040Z,14.63
2019-03-27T23:26:44.607Z,19.63
2019-03-27T23:29:13.135Z,16.50
2019-03-27T23:31:41.632Z,15.77
2019-03-27T23:34:10.166Z,17.43
2019-03-27T23:36:38.707Z,15.63
2019-03-27T23:39:08.601Z,14.83
2019-03-27T23:41:37.126Z,13.27
2019-03-27T23:44:05.757Z,13.40
2019-03-27T23:46:34.284Z,19.40
2019-03-27T23:49:02.856Z,17.07
2019-03-27T23:51:31.387Z,14.13
2019-03-27T23:53:59.951Z,13.40
2019-03-27T23:56:28.479Z,13.70
2019-03-27T23:58:57.037Z,15.17
